METAR Data
IDs: Format: Raw Decoded Include TAF

Data at: 2359 UTC 25 Oct 2021

KALI 252353Z AUTO 12010KT 10SM CLR 28/23 A2989 RMK AO2 SLP119 T02830228 10339 20283 53006
KALI 252253Z AUTO 13009KT 10SM CLR 31/22 A2987 RMK AO2 SLP114 T03110217
KALI 252153Z AUTO 12009KT 10SM FEW045 33/22 A2988 RMK AO2 SLP114 T03280217
KALI 252053Z AUTO 12006KT 10SM FEW043 33/22 A2987 RMK AO2 SLP114 T03280217 56021
KALI 251953Z AUTO 14008KT 120V180 10SM CLR 33/22 A2989 RMK AO2 SLP118 T03330217
KALI 251853Z AUTO 13007KT 10SM FEW035 33/22 A2991 RMK AO2 SLP126 T03280222
KALI 251753Z AUTO 16009KT 10SM CLR 32/23 A2994 RMK AO2 SLP135 T03170228 10317 20211 58010
KALI 251653Z AUTO 19009KT 10SM CLR 31/23 A2995 RMK AO2 SLP140 T03060233
KALI 251627Z AUTO 19008KT 10SM SCT017 29/23 A2996 RMK AO2 T02940233
KALI 251553Z AUTO 22007KT 10SM BKN012 28/24 A2997 RMK AO2 SLP144 T02830239
KALI 251525Z AUTO 19005KT 10SM SCT007 BKN014 26/24 A2997 RMK AO2 T02610239
KALI 251500Z AUTO 18007KT 10SM BKN005 OVC009 24/24 A2997 RMK AO2 CIG 003V007 T02440244
KALI 251453Z AUTO 20007KT 10SM BKN004 OVC009 24/24 A2997 RMK AO2 SLP145 T02440244 51016
KALI 251449Z AUTO 19005KT 10SM BKN004 OVC009 24/24 A2997 RMK AO2
KALI 251429Z AUTO 20006KT 3SM BR OVC002 24/24 A2996 RMK AO2 T02440244
KALI 251424Z AUTO 19005KT 1SM BR VV002 24/24 A2995 RMK AO2 T02440244
KALI 251407Z AUTO 18005KT 1/2SM FG VV003 24/24 A2995 RMK AO2 T02390239
KALI 251353Z AUTO 00000KT 1/4SM FG VV003 23/23 A2995 RMK AO2 SLP137 T02330233
KALI 251253Z AUTO 00000KT 1/4SM FG VV003 21/21 A2992 RMK AO2 SLP128 T02110211
KALI 251244Z AUTO 00000KT 1/4SM FG VV005 21/21 A2992 RMK AO2 T02110211
KALI 251239Z AUTO 00000KT 1/2SM FG VV004 22/22 A2992 RMK AO2 T02170217
KALI 251224Z AUTO 00000KT 1/2SM FG FEW002 BKN006 OVC014 23/23 A2992 RMK AO2 T02280228
KALI 251217Z AUTO 00000KT 3/4SM BR BKN004 OVC014 23/23 A2991 RMK AO2 T02280228
KALI 251213Z AUTO 00000KT 1 1/4SM BR BKN003 OVC014 23/23 A2991 RMK AO2 T02280228
KALI 251210Z AUTO 00000KT 2 1/2SM BR SCT003 BKN006 OVC014 23/23 A2991 RMK AO2 T02280228
KALI 251200Z AUTO 00000KT 4SM BR SCT003 OVC014 23/23 A2991 RMK AO2 T02330228 $
KALI 251153Z AUTO 00000KT 2SM BR BKN002 OVC012 23/23 A2991 RMK AO2 SLP125 T02330233 10239 20217 53006 $
KALI 251143Z AUTO 00000KT 1 1/4SM BR OVC002 23/23 A2991 RMK AO2 T02330233 $
KALI 251134Z AUTO 20003KT 3/4SM BR VV002 23/23 A2990 RMK AO2 T02330233 $
KALI 251127Z AUTO 18004KT 1/2SM FG VV002 23/23 A2990 RMK AO2 T02330233 $
KALI 251109Z AUTO 20004KT 3/4SM BR VV002 23/23 A2990 RMK AO2 T02330233 $
KALI 251053Z AUTO 20005KT 1 1/2SM BR OVC002 23/23 A2989 RMK AO2 SLP120 T02330233 $
KALI 251018Z AUTO 19005KT 3SM BR OVC002 24/23 A2989 RMK AO2 T02390233 $
KALI 251007Z AUTO 21006KT 1SM BR VV002 24/24 A2989 RMK AO2 T02390239 $
KALI 250953Z AUTO 20005KT 1/2SM FG VV002 24/24 A2989 RMK AO2 SLP120 T02390239 $
KALI 250911Z AUTO 19003KT 1/2SM FG VV002 24/23 A2989 RMK AO2 T02390233 $
KALI 250853Z AUTO 00000KT 3/4SM BR VV002 24/23 A2989 RMK AO2 SLP119 T02390233 56003 $
KALI 250839Z AUTO 16003KT 1/2SM FG VV002 24/23 A2989 RMK AO2 T02390233 $
KALI 250807Z AUTO 18004KT 1/4SM FG VV002 24/23 A2989 RMK AO2 T02390233 $
KALI 250753Z AUTO 19005KT 1/2SM FG VV002 23/23 A2990 RMK AO2 SLP122 T02330233 $
KALI 250748Z AUTO 19004KT 3/4SM BR VV002 23/23 A2990 RMK AO2 $
KALI 250726Z AUTO 00000KT 1SM BR OVC003 23/22 A2991 RMK AO2 T02280222
KALI 250721Z AUTO 00000KT 3/4SM BR VV004 22/22 A2990 RMK AO2 T02220222
KALI 250713Z AUTO 00000KT 1/2SM FG VV005 23/22 A2990 RMK AO2 T02280222
KALI 250653Z AUTO 15003KT 1/2SM FG VV004 22/22 A2990 RMK AO2 SLP122 T02170217
KALI 250605Z AUTO 00000KT 1/2SM FG VV006 23/22 A2989 RMK AO2 T02280222
KALI 250553Z AUTO 00000KT 3/4SM BR VV007 23/22 A2990 RMK AO2 SLP121 T02280222 10267 20222 403440200 51015
KALI 250534Z AUTO 14003KT 3/4SM BR OVC009 22/22 A2990 RMK AO2 T02220222
KALI 250519Z AUTO 00000KT 1 1/4SM BR BKN009 23/22 A2989 RMK AO2 T02280222
KALI 250505Z AUTO 00000KT 2SM BR BKN010 23/23 A2989 RMK AO2 T02280228
KALI 250453Z AUTO 00000KT 1 1/4SM BR FEW011 23/23 A2989 RMK AO2 SLP119 T02280228
KALI 250433Z AUTO 15003KT 2SM BR CLR 23/23 A2988 RMK AO2 T02330233
KALI 250353Z AUTO 16004KT 10SM CLR 24/23 A2987 RMK AO2 SLP113 T02390233
KALI 250253Z AUTO 15006KT 10SM CLR 25/24 A2985 RMK AO2 SLP106 T02500239 53022
KALI 250153Z AUTO 14007KT 10SM CLR 26/24 A2983 RMK AO2 SLP099 T02560239
KALI 250053Z AUTO 14011KT 10SM CLR 27/23 A2980 RMK AO2 SLP089 T02670233
KALI 242353Z AUTO 14010KT 10SM CLR 28/23 A2979 RMK AO2 SLP084 T02830228 10344 20283 53001
KALI 242253Z AUTO 14009KT 10SM CLR 32/23 A2978 RMK AO2 SLP083 T03170228
KALI 242153Z AUTO 10006KT 10SM CLR 33/21 A2979 RMK AO2 SLP084 T03330211 $
KALI 242053Z AUTO VRB06KT 10SM SCT050 33/22 A2978 RMK AO2 SLP083 T03330217 55017 $
KALI 241953Z AUTO 17006KT 10SM FEW046 33/21 A2978 RMK AO2 SLP080 T03280206 $
KALI 241853Z AUTO 10SM BKN041 32/22 A2981 RMK AO2 SLP091 T03170217 $
KALI 241753Z AUTO VRB04KT 10SM SCT032 31/22 A2983 RMK AO2 SLP100 T03110222 10317 20211 58005 $
KALI 241745Z AUTO 16006KT 10SM SCT032 31/22 A2984 RMK AO2 T03110222 $
KALI 241736Z AUTO 15007KT 100V200 10SM BKN029 31/22 A2984 RMK AO2 T03060222 $
KALI 241653Z AUTO 23005KT 10SM FEW023 29/23 A2985 RMK AO2 SLP106 T02940228 $
KALI 241630Z AUTO 21006KT 10SM FEW016 SCT032 29/23 A2986 RMK AO2 T02890228 $
KALI 241553Z AUTO 21007KT 10SM SCT014 BKN021 BKN028 27/24 A2986 RMK AO2 SLP108 T02720239 $
KALI 241528Z AUTO 19007KT 10SM BKN012 OVC021 27/24 A2986 RMK AO2 T02670244 $
KALI 241453Z AUTO 17005KT 10SM BKN007 BKN019 25/24 A2985 RMK AO2 CIG 004V009 SLP105 T02500244 53014
KALI 241435Z AUTO 16005KT 10SM SCT003 BKN019 24/24 A2984 RMK AO2 T02440244
KALI 241406Z AUTO 15003KT 3SM BR OVC002 23/23 A2983 RMK AO2 T02330233
KALI 241353Z AUTO 00000KT 1 1/4SM BR OVC002 23/23 A2983 RMK AO2 SLP098 T02280228
KALI 241339Z AUTO 00000KT 2SM BR BKN002 OVC021 23/23 A2982 RMK AO2 T02280228
KALI 241323Z AUTO 00000KT 1SM BR SCT003 BKN017 OVC023 23/23 A2982 RMK AO2 T02280228
KALI 241311Z AUTO 00000KT 1/2SM FG SCT002 SCT010 OVC016 22/22 A2981 RMK AO2 T02220222
KALI 241253Z AUTO 00000KT 1/4SM FG VV002 22/22 A2981 RMK AO2 SLP091 T02170217
KALI 241211Z AUTO 00000KT 1/2SM FG VV002 22/22 A2980 RMK AO2 T02170217